HESN

Aswan International Airport

Aswan, Egypt
METAR HESN 200100Z 35004KT CAVOK 23/04 Q1012 NOSIG
Observed Flight Rules
Oct-20 @ 01:00 UTC (13 hours ago) Visual Flight Rules
Wind Visibility Clouds
350° at 4 knots 10,000+ meters
  • Clear skies
Temperatures Readings
Current 23°C / 73°F
Dewpoint 4°C / 39°F
Humidity 29%
Altimeter 29.88" Hg
Pressure 1012 hPa
Elevation 194
METAR HESN 200100Z 35004KT CAVOK 23/04 Q1012 NOSIG
Observed Flight Rules
Oct-20 @ 01:00 UTC
(13 hours ago)
VFR
Wind Visibility
350° at 4 knots 10,000+ meters
Clouds
  • Clear skies
Temperature Dewpoint
23°C / 73°F 4°C / 39°F
Humidity Altimeter Pressure
29% 29.88" Hg 1012 hPa